Time;durP1;ratioP1;P1;durP2;ratioP2;P2;SDS_P1;SDS_P2;PMS_P1;PMS_P2;Temp;Humidity;BMP_temperature;BMP_pressure;BME280_temperature;BME280_humidity;BME280_pressure;Samples;Min_cycle;Max_cycle;Signal;HPM_P1;HPM_P2
2023/01/12 00:00:04;;;;;;;53.70;23.70;;;;;;;6.46;100.00;98822.47;67836;1277;1016032;-60
2023/01/12 00:03:07;;;;;;;54.40;24.20;;;;;;;6.54;100.00;98821.95;67788;1277;1016028;-60
2023/01/12 00:06:11;;;;;;;56.30;25.20;;;;;;;6.53;100.00;98823.35;67857;1277;1016189;-60
2023/01/12 00:09:13;;;;;;;69.70;29.60;;;;;;;6.59;100.00;98825.88;67862;1278;1016178;-60
2023/01/12 00:12:16;;;;;;;61.30;27.50;;;;;;;6.57;100.00;98828.39;67877;1277;1017081;-60
2023/01/12 00:16:33;;;;;;;58.00;25.00;;;;;;;6.57;100.00;98825.27;67857;1277;1016144;-60
2023/01/12 00:18:40;;;;;;;51.60;22.20;;;;;;;6.55;100.00;98828.48;67843;1278;1016395;-60
2023/01/12 00:21:55;;;;;;;39.70;17.80;;;;;;;6.53;100.00;98834.31;67851;1278;1016458;-60
2023/01/12 00:24:57;;;;;;;44.90;18.60;;;;;;;6.50;100.00;98833.91;67779;1277;1017591;-60
2023/01/12 00:28:00;;;;;;;37.40;15.30;;;;;;;6.52;100.00;98831.41;67846;1278;1016164;-60
2023/01/12 00:31:02;;;;;;;39.70;15.30;;;;;;;6.54;100.00;98833.77;67807;1277;1016447;-60
2023/01/12 00:34:07;;;;;;;36.80;13.80;;;;;;;6.54;100.00;98834.23;67853;1277;1016287;-60
2023/01/12 00:37:10;;;;;;;36.10;13.70;;;;;;;6.46;100.00;98834.27;67854;1277;1016091;-60
2023/01/12 00:40:12;;;;;;;35.10;13.20;;;;;;;6.46;100.00;98829.59;67827;1278;1016438;-60
2023/01/12 00:46:35;;;;;;;34.00;11.80;;;;;;;6.33;100.00;98835.90;67842;1278;1018515;-59
2023/01/12 00:49:37;;;;;;;32.10;11.70;;;;;;;6.28;100.00;98832.82;67863;1277;1016338;-59
2023/01/12 00:52:40;;;;;;;34.70;11.30;;;;;;;6.28;100.00;98839.94;67821;1277;1016359;-59
2023/01/12 00:55:44;;;;;;;;;;;;;;;6.25;100.00;98843.52;67876;1277;1016420;-59
2023/01/12 00:58:47;;;;;;;29.70;8.90;;;;;;;6.25;100.00;98841.09;67866;1278;1016383;-59
2023/01/12 01:01:49;;;;;;;31.10;10.10;;;;;;;6.21;100.00;98838.64;67830;1278;1016419;-59
2023/01/12 01:04:52;;;;;;;29.90;9.20;;;;;;;6.19;100.00;98835.30;67832;1278;1016526;-59
2023/01/12 01:07:54;;;;;;;27.80;8.80;;;;;;;6.16;100.00;98837.48;67817;1278;1016362;-59
2023/01/12 01:10:57;;;;;;;22.80;7.60;;;;;;;6.20;100.00;98834.70;67832;1278;1016437;-59
2023/01/12 01:13:59;;;;;;;26.80;9.10;;;;;;;6.19;100.00;98835.77;67894;1277;1016419;-59
2023/01/12 01:17:02;;;;;;;26.30;8.80;;;;;;;6.19;100.00;98830.73;67875;1277;1016197;-59
2023/01/12 01:20:04;;;;;;;26.10;8.90;;;;;;;6.19;100.00;98826.56;67810;1278;1016426;-60
2023/01/12 01:23:07;;;;;;;24.50;8.60;;;;;;;6.17;100.00;98824.77;67878;1278;1016422;-60
2023/01/12 01:26:09;;;;;;;24.80;8.60;;;;;;;6.20;100.00;98828.65;67845;1278;1016440;-59
2023/01/12 01:29:12;;;;;;;23.90;7.60;;;;;;;6.21;100.00;98835.34;67862;1277;1017967;-59
2023/01/12 01:32:14;;;;;;;26.90;8.70;;;;;;;6.21;100.00;98838.15;67823;1278;1016371;-59
2023/01/12 01:35:17;;;;;;;24.10;8.40;;;;;;;6.38;100.00;98842.43;67834;1277;1015806;-59
2023/01/12 01:38:19;;;;;;;26.70;7.80;;;;;;;6.36;100.00;98843.05;67827;1278;1016102;-59
2023/01/12 01:41:21;;;;;;;26.10;8.50;;;;;;;6.35;100.00;98843.80;67859;1278;1018342;-59
2023/01/12 01:44:24;;;;;;;26.20;8.10;;;;;;;6.26;100.00;98846.08;67898;1278;1016444;-59
2023/01/12 01:47:26;;;;;;;23.30;7.90;;;;;;;6.25;100.00;98849.77;67796;1278;1016416;-59
2023/01/12 01:50:29;;;;;;;25.80;7.70;;;;;;;6.28;100.00;98855.38;67810;1277;1017866;-59
2023/01/12 01:53:31;;;;;;;25.70;9.20;;;;;;;6.28;100.00;98859.02;67817;1277;1016271;-59
2023/01/12 01:56:33;;;;;;;27.00;10.10;;;;;;;6.28;100.00;98866.52;67848;1277;1016484;-59
2023/01/12 01:59:36;;;;;;;27.00;8.80;;;;;;;6.30;100.00;98872.84;67862;1278;1016384;-59
2023/01/12 02:02:38;;;;;;;26.50;9.10;;;;;;;6.31;100.00;98877.48;67885;1277;1017947;-59
2023/01/12 02:05:41;;;;;;;26.40;9.20;;;;;;;6.34;100.00;98882.59;67820;1278;1016904;-59
2023/01/12 02:08:43;;;;;;;25.70;8.50;;;;;;;6.38;100.00;98886.39;67831;1278;1016280;-60
2023/01/12 02:18:26;;;;;;;25.00;8.90;;;;;;;6.51;100.00;98887.05;67859;1278;1016851;-59
2023/01/12 02:21:28;;;;;;;25.10;8.20;;;;;;;6.57;100.00;98887.80;67875;1277;1016322;-59
2023/01/12 02:24:31;;;;;;;24.70;8.60;;;;;;;6.60;100.00;98879.35;67790;1277;1016065;-59
2023/01/12 02:27:33;;;;;;;25.50;8.10;;;;;;;6.68;100.00;98879.52;67812;1277;1016396;-59
2023/01/12 02:30:35;;;;;;;26.30;8.70;;;;;;;6.68;100.00;98879.17;67820;1277;1016529;-59
2023/01/12 02:33:38;;;;;;;25.70;8.30;;;;;;;6.57;100.00;98879.49;67858;1277;1016894;-59
2023/01/12 02:36:40;;;;;;;22.00;7.60;;;;;;;6.52;100.00;98887.52;67877;1278;1016531;-59
2023/01/12 02:39:42;;;;;;;24.00;8.80;;;;;;;6.57;100.00;98884.53;67883;1277;1016210;-59
2023/01/12 02:42:46;;;;;;;23.40;8.30;;;;;;;6.51;100.00;98888.08;67889;1277;1016408;-59
2023/01/12 02:45:48;;;;;;;24.30;8.50;;;;;;;6.52;100.00;98888.94;67896;1277;1016883;-59
2023/01/12 02:48:51;;;;;;;24.20;9.00;;;;;;;6.54;100.00;98888.98;67784;1277;1018104;-59
2023/01/12 02:51:54;;;;;;;24.10;8.50;;;;;;;6.52;100.00;98886.81;67798;1277;1016432;-59
2023/01/12 02:54:56;;;;;;;;;;;;;;;6.50;100.00;98887.60;67853;1277;1016383;-59
2023/01/12 02:57:59;;;;;;;25.70;9.40;;;;;;;6.47;100.00;98887.21;67847;1277;1018877;-60
2023/01/12 03:01:01;;;;;;;23.60;8.80;;;;;;;6.45;100.00;98889.38;67827;1277;1016406;-59
2023/01/12 03:04:03;;;;;;;25.70;9.10;;;;;;;6.53;100.00;98890.77;67837;1277;1016426;-59
2023/01/12 03:07:06;;;;;;;24.50;8.80;;;;;;;6.59;100.00;98890.52;67860;1277;1018649;-59
2023/01/12 03:10:08;;;;;;;26.00;9.00;;;;;;;6.62;100.00;98893.70;67861;1277;1016532;-59
2023/01/12 03:13:11;;;;;;;26.50;9.50;;;;;;;6.62;100.00;98892.13;67862;1277;1016442;-59
2023/01/12 03:16:13;;;;;;;26.30;9.00;;;;;;;6.61;100.00;98892.35;67856;1277;1016508;-59
2023/01/12 03:19:16;;;;;;;25.30;9.90;;;;;;;6.58;100.00;98892.98;67817;1277;1016417;-59
2023/01/12 03:22:18;;;;;;;26.80;9.50;;;;;;;6.59;100.00;98890.16;67879;1277;1016542;-59
2023/01/12 03:25:20;;;;;;;25.90;9.90;;;;;;;6.59;100.00;98892.63;67857;1277;1016532;-59
2023/01/12 03:28:23;;;;;;;25.20;9.90;;;;;;;6.66;100.00;98889.72;67852;1278;1016520;-59
2023/01/12 03:31:25;;;;;;;25.50;9.20;;;;;;;6.64;100.00;98887.88;67817;1278;1016403;-59
2023/01/12 03:34:28;;;;;;;26.20;9.70;;;;;;;6.67;100.00;98885.66;67806;1277;1016488;-59
2023/01/12 03:37:30;;;;;;;25.80;9.50;;;;;;;6.71;100.00;98881.84;67873;1277;1016702;-59
2023/01/12 03:40:33;;;;;;;25.90;9.40;;;;;;;6.69;100.00;98881.58;67880;1277;1018289;-59
2023/01/12 03:43:35;;;;;;;24.50;9.90;;;;;;;6.65;100.00;98882.60;67830;1277;1016148;-60
2023/01/12 03:46:38;;;;;;;28.90;10.10;;;;;;;6.64;100.00;98885.10;67821;1277;1018689;-59
2023/01/12 03:49:40;;;;;;;25.90;10.00;;;;;;;6.66;100.00;98888.13;67812;1278;1016374;-59
2023/01/12 03:52:42;;;;;;;27.30;10.70;;;;;;;6.72;100.00;98893.61;67852;1277;1016636;-60
2023/01/12 03:55:45;;;;;;;26.10;10.20;;;;;;;6.69;100.00;98893.91;67841;1278;1016579;-59
2023/01/12 03:58:47;;;;;;;25.10;10.20;;;;;;;6.67;100.00;98899.39;67862;1278;1017780;-59
2023/01/12 04:01:50;;;;;;;26.70;11.00;;;;;;;6.69;100.00;98898.41;67784;1278;1016573;-59
2023/01/12 04:04:52;;;;;;;26.60;10.50;;;;;;;6.72;100.00;98901.23;67863;1277;1016387;-59
2023/01/12 04:07:55;;;;;;;25.60;10.90;;;;;;;6.78;100.00;98905.50;67862;1278;1016617;-59
2023/01/12 04:10:57;;;;;;;28.80;11.70;;;;;;;6.78;100.00;98914.90;67861;1277;1018654;-59
2023/01/12 04:14:00;;;;;;;30.60;12.00;;;;;;;6.80;100.00;98913.27;67803;1278;1018418;-59
2023/01/12 04:17:02;;;;;;;31.50;13.30;;;;;;;6.80;100.00;98912.54;67804;1278;1016478;-59
2023/01/12 04:20:04;;;;;;;31.70;13.20;;;;;;;6.80;100.00;98912.02;67814;1278;1017047;-59
2023/01/12 04:23:07;;;;;;;28.80;11.80;;;;;;;6.83;100.00;98913.48;67846;1278;1016456;-59
2023/01/12 04:26:09;;;;;;;31.90;13.50;;;;;;;6.96;100.00;98920.89;67874;1277;1016508;-59
2023/01/12 04:29:12;;;;;;;30.70;12.70;;;;;;;6.94;100.00;98919.05;67860;1278;1016400;-59
2023/01/12 04:32:14;;;;;;;27.40;11.60;;;;;;;6.96;100.00;98914.98;67789;1277;1017199;-59
2023/01/12 04:35:16;;;;;;;30.60;12.90;;;;;;;6.91;100.00;98917.61;67821;1278;1016476;-59
2023/01/12 04:38:19;;;;;;;32.80;13.70;;;;;;;6.89;100.00;98912.31;67842;1277;1016810;-59
2023/01/12 04:41:21;;;;;;;29.90;13.00;;;;;;;6.85;100.00;98914.95;67884;1278;1019339;-59
2023/01/12 04:44:24;;;;;;;29.40;12.80;;;;;;;6.87;100.00;98911.53;67854;1278;1016339;-59
2023/01/12 04:47:26;;;;;;;31.30;13.20;;;;;;;6.89;100.00;98913.54;67841;1277;1016245;-59
2023/01/12 04:50:28;;;;;;;31.70;13.80;;;;;;;6.95;100.00;98916.08;67838;1278;1016736;-59
2023/01/12 04:53:31;;;;;;;31.10;14.20;;;;;;;6.89;100.00;98918.05;67866;1278;1016368;-59
2023/01/12 04:56:33;;;;;;;29.90;13.60;;;;;;;6.90;100.00;98924.28;67853;1278;1016488;-59
2023/01/12 04:59:36;;;;;;;31.30;13.80;;;;;;;6.93;100.00;98927.25;67864;1277;1016399;-59
2023/01/12 05:02:38;;;;;;;32.10;13.20;;;;;;;6.99;100.00;98921.11;67830;1277;1016482;-59
2023/01/12 05:05:40;;;;;;;32.20;13.90;;;;;;;7.03;100.00;98919.85;67802;1278;1016369;-59
2023/01/12 05:12:03;;;;;;;30.30;13.30;;;;;;;7.02;100.00;98922.02;67847;1277;1018635;-59
2023/01/12 05:15:06;;;;;;;33.00;14.20;;;;;;;6.93;100.00;98913.55;67832;1278;1019594;-60
2023/01/12 05:18:09;;;;;;;31.50;13.90;;;;;;;6.91;100.00;98912.55;67904;1278;1016430;-59
2023/01/12 05:21:11;;;;;;;31.50;13.40;;;;;;;6.90;100.00;98919.40;67821;1277;1016375;-59
2023/01/12 05:24:13;;;;;;;34.00;14.50;;;;;;;6.93;100.00;98920.65;67811;1277;1016495;-59
2023/01/12 05:27:16;;;;;;;32.90;13.70;;;;;;;6.91;100.00;98928.24;67845;1278;1016231;-59
2023/01/12 05:30:19;;;;;;;26.40;11.40;;;;;;;6.87;100.00;98925.47;67832;1278;1016764;-59
2023/01/12 05:33:21;;;;;;;31.10;12.90;;;;;;;6.95;100.00;98924.05;67804;1278;1017983;-59
2023/01/12 05:36:24;;;;;;;28.30;11.80;;;;;;;6.94;100.00;98930.52;67832;1277;1016308;-59
2023/01/12 05:39:26;;;;;;;30.60;12.80;;;;;;;6.95;100.00;98935.51;67824;1277;1016075;-59
2023/01/12 05:45:49;;;;;;;31.40;13.70;;;;;;;6.86;100.00;98940.81;67845;1278;1016276;-59
2023/01/12 05:48:51;;;;;;;32.10;14.10;;;;;;;6.88;100.00;98940.16;67802;1278;1016430;-59
2023/01/12 05:51:54;;;;;;;29.50;13.20;;;;;;;6.91;100.00;98943.88;67802;1277;1016453;-59
2023/01/12 05:54:56;;;;;;;28.30;12.60;;;;;;;7.01;100.00;98945.88;67854;1277;1016581;-59
2023/01/12 05:57:58;;;;;;;26.20;11.80;;;;;;;7.01;100.00;98947.41;67858;1278;1016933;-59
2023/01/12 06:01:01;;;;;;;28.20;12.20;;;;;;;7.00;100.00;98949.74;67852;1278;1019320;-59
2023/01/12 06:04:04;;;;;;;28.90;12.60;;;;;;;6.98;100.00;98947.91;67796;1278;1015756;-59
2023/01/12 06:07:06;;;;;;;28.70;12.70;;;;;;;6.96;100.00;98947.46;67809;1277;1016364;-59
2023/01/12 06:10:08;;;;;;;28.40;12.80;;;;;;;6.92;100.00;98952.70;67890;1278;1016472;-59
2023/01/12 06:16:31;;;;;;;28.00;12.40;;;;;;;6.93;100.00;98961.48;67847;1278;1016299;-59
2023/01/12 06:19:33;;;;;;;27.10;12.10;;;;;;;6.96;100.00;98961.55;67782;1278;1016416;-59
2023/01/12 06:22:36;;;;;;;28.10;12.30;;;;;;;6.89;100.00;98958.55;67802;1277;1016479;-59
2023/01/12 06:25:38;;;;;;;31.60;12.30;;;;;;;6.88;100.00;98961.54;67863;1277;1015596;-59
2023/01/12 06:28:41;;;;;;;28.30;13.00;;;;;;;6.91;100.00;98962.30;67871;1278;1017051;-59
2023/01/12 06:31:44;;;;;;;26.30;11.20;;;;;;;6.93;100.00;98967.60;67820;1278;1016342;-59
2023/01/12 06:34:46;;;;;;;28.40;12.00;;;;;;;6.86;100.00;98971.03;67789;1278;1016477;-59
2023/01/12 06:37:49;;;;;;;26.60;11.50;;;;;;;6.88;100.00;98972.16;67867;1277;1017916;-59
2023/01/12 06:40:51;;;;;;;28.20;12.10;;;;;;;6.93;100.00;98970.05;67862;1278;1016302;-59
2023/01/12 06:43:53;;;;;;;26.90;11.40;;;;;;;7.03;100.00;98966.28;67843;1278;1016256;-59
2023/01/12 06:46:56;;;;;;;28.70;12.30;;;;;;;7.03;100.00;98971.19;67830;1278;1016108;-59
2023/01/12 06:49:58;;;;;;;28.10;12.10;;;;;;;7.01;100.00;98976.64;67818;1278;1016382;-59
2023/01/12 06:53:01;;;;;;;34.50;15.60;;;;;;;7.05;100.00;98976.13;67838;1277;1015840;-59
2023/01/12 06:56:03;;;;;;;39.90;17.90;;;;;;;7.02;100.00;98980.27;67835;1278;1015900;-59
2023/01/12 06:59:05;;;;;;;37.80;16.80;;;;;;;6.91;100.00;98978.97;67860;1278;1016368;-59
2023/01/12 07:02:08;;;;;;;34.20;15.10;;;;;;;6.86;100.00;98977.11;67850;1278;1016128;-59
2023/01/12 07:05:10;;;;;;;36.10;15.70;;;;;;;6.92;100.00;98979.48;67847;1278;1016108;-59
2023/01/12 07:08:14;;;;;;;39.40;16.50;;;;;;;6.85;100.00;98984.99;67797;1278;1016254;-59
2023/01/12 07:11:17;;;;;;;38.50;16.50;;;;;;;6.86;100.00;98990.50;67871;1277;1016404;-59
2023/01/12 07:14:19;;;;;;;35.90;15.50;;;;;;;6.80;100.00;98988.15;67869;1278;1016575;-59
2023/01/12 07:17:22;;;;;;;33.60;14.70;;;;;;;6.78;100.00;98990.00;67800;1278;1016484;-59
2023/01/12 07:20:24;;;;;;;35.40;14.60;;;;;;;6.73;100.00;98994.67;67783;1278;1016239;-59
2023/01/12 07:23:27;;;;;;;39.90;17.60;;;;;;;6.70;100.00;98995.88;67812;1277;1016728;-59
2023/01/12 07:26:29;;;;;;;39.30;16.90;;;;;;;6.79;100.00;98997.25;67826;1278;1016187;-59
2023/01/12 07:29:31;;;;;;;38.30;17.60;;;;;;;6.77;100.00;98999.92;67847;1278;1016349;-59
2023/01/12 07:32:34;;;;;;;41.70;17.80;;;;;;;6.79;100.00;99004.73;67774;1278;1016761;-59
2023/01/12 07:35:36;;;;;;;46.20;20.00;;;;;;;6.78;100.00;99008.04;67794;1278;1016142;-60
2023/01/12 07:38:40;;;;;;;45.30;19.30;;;;;;;6.80;100.00;99010.57;67869;1278;1019341;-59
2023/01/12 07:45:03;;;;;;;42.10;18.50;;;;;;;6.74;100.00;99018.64;67861;1278;1016497;-59
2023/01/12 07:48:06;;;;;;;;;;;;;;;6.75;100.00;99019.66;67818;1278;1016379;-59
2023/01/12 07:51:08;;;;;;;46.70;21.20;;;;;;;6.74;100.00;99022.98;67784;1278;1016641;-59
2023/01/12 07:54:11;;;;;;;41.20;20.20;;;;;;;6.79;100.00;99021.56;67811;1278;1016940;-59
2023/01/12 07:57:13;;;;;;;39.40;18.60;;;;;;;6.87;100.00;99020.35;67845;1278;1017052;-60
2023/01/12 08:00:16;;;;;;;37.70;17.80;;;;;;;6.95;100.00;99017.92;67843;1278;1016256;-59
2023/01/12 08:03:19;;;;;;;;;;;;;;;7.03;100.00;99020.58;67789;1278;1016502;-59
2023/01/12 08:06:21;;;;;;;34.90;16.90;;;;;;;6.99;100.00;99018.81;67826;1278;1016368;-59
2023/01/12 08:09:24;;;;;;;40.60;18.50;;;;;;;6.87;100.00;99018.98;67826;1277;1017210;-59
2023/01/12 08:12:26;;;;;;;36.50;15.20;;;;;;;6.87;100.00;99014.09;67839;1278;1017772;-59
2023/01/12 08:15:28;;;;;;;34.90;16.60;;;;;;;6.85;100.00;99014.19;67794;1278;1015650;-59
2023/01/12 08:18:31;;;;;;;37.80;18.50;;;;;;;6.90;100.00;99016.21;67785;1278;1015886;-59
2023/01/12 08:21:33;;;;;;;35.20;17.50;;;;;;;6.98;100.00;99014.13;67861;1278;1015937;-59
2023/01/12 08:24:36;;;;;;;30.10;14.10;;;;;;;7.04;100.00;99007.46;67853;1278;1016459;-59
2023/01/12 08:27:38;;;;;;;28.40;13.00;;;;;;;7.07;100.00;99010.46;67850;1278;1016205;-59
2023/01/12 08:30:41;;;;;;;27.50;12.70;;;;;;;7.11;100.00;99021.05;67833;1278;1016264;-59
2023/01/12 08:33:43;;;;;;;34.60;14.60;;;;;;;7.22;100.00;99023.19;67820;1278;1016367;-59
2023/01/12 08:36:46;;;;;;;;;;;;;;;7.21;100.00;99022.73;67874;1278;1016385;-59
2023/01/12 08:39:48;;;;;;;33.40;15.50;;;;;;;7.26;100.00;99022.13;67837;1278;1016189;-59
2023/01/12 08:42:51;;;;;;;38.80;18.20;;;;;;;7.36;100.00;99025.39;67783;1278;1016526;-60
2023/01/12 08:45:53;;;;;;;36.30;17.30;;;;;;;7.42;100.00;99024.05;67781;1278;1016495;-59
2023/01/12 08:48:56;;;;;;;38.50;19.20;;;;;;;7.45;100.00;99027.59;67852;1278;1018561;-59
2023/01/12 08:51:58;;;;;;;39.20;17.40;;;;;;;7.59;100.00;99028.70;67819;1278;1016111;-59
2023/01/12 08:55:00;;;;;;;30.80;14.50;;;;;;;7.71;100.00;99034.42;67812;1278;1016450;-59
2023/01/12 08:58:03;;;;;;;32.30;16.10;;;;;;;7.76;100.00;99036.80;67814;1277;1015941;-59
2023/01/12 09:01:05;;;;;;;34.30;16.70;;;;;;;7.73;100.00;99033.61;67842;1278;1016118;-59
2023/01/12 09:04:08;;;;;;;39.50;19.00;;;;;;;7.85;100.00;99029.58;67847;1278;1016506;-59
2023/01/12 09:07:10;;;;;;;37.00;18.40;;;;;;;7.97;100.00;99036.33;67828;1278;1016424;-59
2023/01/12 09:10:13;;;;;;;42.30;20.70;;;;;;;8.02;100.00;99036.50;67773;1278;1016401;-59
2023/01/12 09:13:15;;;;;;;40.50;20.00;;;;;;;8.10;100.00;99034.16;67791;1278;1016149;-60
2023/01/12 09:16:17;;;;;;;38.20;17.90;;;;;;;8.23;100.00;99030.05;67768;1278;1016515;-59
2023/01/12 09:19:20;;;;;;;33.40;15.90;;;;;;;8.29;100.00;99032.20;67810;1277;1016130;-59
2023/01/12 09:22:22;;;;;;;34.60;17.00;;;;;;;8.34;100.00;99030.77;67847;1278;1016085;-59
2023/01/12 09:25:25;;;;;;;40.40;18.30;;;;;;;8.62;100.00;99025.42;67793;1278;1016450;-59
2023/01/12 09:28:28;;;;;;;35.60;17.20;;;;;;;8.80;100.00;99020.00;67800;1278;1016453;-59
2023/01/12 09:31:30;;;;;;;;;;;;;;;8.78;100.00;99017.99;67817;1278;1016285;-59
2023/01/12 09:34:33;;;;;;;39.90;18.80;;;;;;;8.90;100.00;99011.09;67857;1278;1016457;-60
2023/01/12 09:37:36;;;;;;;;;;;;;;;8.89;100.00;99006.80;67812;1278;1016428;-59
2023/01/12 09:40:39;;;;;;;37.70;17.30;;;;;;;8.86;100.00;99005.56;67783;1278;1016944;-60
2023/01/12 09:47:01;;;;;;;37.40;19.20;;;;;;;9.04;100.00;99005.73;67704;1278;1018897;-59
2023/01/12 09:50:03;;;;;;;43.90;21.00;;;;;;;8.97;100.00;99006.38;67737;1277;1015802;-59
2023/01/12 09:53:06;;;;;;;36.80;17.50;;;;;;;8.95;100.00;99003.02;67809;1278;1016482;-60
2023/01/12 09:56:08;;;;;;;38.60;20.10;;;;;;;8.88;100.00;98999.02;67821;1278;1018379;-59
2023/01/12 09:59:11;;;;;;;39.30;19.40;;;;;;;8.79;100.00;98998.60;67857;1278;1016439;-59
2023/01/12 10:02:13;;;;;;;36.90;18.90;;;;;;;8.73;100.00;98994.20;67804;1277;1016507;-59
2023/01/12 10:05:16;;;;;;;43.80;18.30;;;;;;;8.55;100.00;98987.59;67789;1278;1019508;-60
2023/01/12 10:08:18;;;;;;;39.40;18.50;;;;;;;8.62;100.00;98990.38;67804;1278;1016427;-60
2023/01/12 10:11:21;;;;;;;45.80;22.20;;;;;;;8.84;100.00;98985.27;67848;1278;1016080;-59
2023/01/12 10:14:23;;;;;;;50.70;25.40;;;;;;;8.92;100.00;98981.90;67847;1278;1016176;-59
2023/01/12 10:17:34;;;;;;;44.50;21.60;;;;;;;9.04;100.00;98978.48;67762;1278;1016294;-59
2023/01/12 10:20:36;;;;;;;41.00;19.10;;;;;;;9.12;100.00;98977.88;67828;1278;1016510;-59
2023/01/12 10:23:39;;;;;;;38.60;17.80;;;;;;;9.04;100.00;98970.97;65105;1278;6543971;-59
2023/01/12 10:26:42;;;;;;;58.60;26.70;;;;;;;9.00;100.00;98975.21;67841;1278;1016497;-59
2023/01/12 10:29:44;;;;;;;;;;;;;;;8.99;100.00;98979.45;67806;1277;1016440;-59
2023/01/12 10:32:46;;;;;;;39.90;18.70;;;;;;;8.95;100.00;98983.66;67772;1278;1016491;-59
2023/01/12 10:35:49;;;;;;;38.90;18.70;;;;;;;8.93;100.00;98989.69;67805;1278;1016291;-60
2023/01/12 10:38:51;;;;;;;41.70;20.00;;;;;;;8.87;100.00;98995.39;67842;1278;1016404;-59
2023/01/12 10:41:54;;;;;;;46.40;22.40;;;;;;;8.76;100.00;98994.38;67826;1278;1016362;-59
2023/01/12 10:44:56;;;;;;;41.50;19.60;;;;;;;8.76;100.00;98991.09;67794;1278;1016487;-59
2023/01/12 10:47:59;;;;;;;39.50;19.80;;;;;;;8.71;100.00;98986.79;67739;1278;1016165;-59
2023/01/12 10:51:01;;;;;;;35.80;16.90;;;;;;;8.74;100.00;98983.88;67832;1278;1016388;-59
2023/01/12 10:54:03;;;;;;;55.10;27.40;;;;;;;8.76;100.00;98984.09;67820;1277;1016423;-59
2023/01/12 10:57:06;;;;;;;63.30;30.00;;;;;;;8.78;100.00;98980.86;67745;1278;1016310;-59
2023/01/12 11:00:09;;;;;;;;;;;;;;;8.85;100.00;98972.15;67782;1277;1016426;-59
2023/01/12 11:03:11;;;;;;;47.30;21.90;;;;;;;8.83;100.00;98960.21;67788;1277;1016918;-60
2023/01/12 11:06:14;;;;;;;51.10;23.70;;;;;;;8.82;100.00;98949.80;67771;1277;1017038;-60
2023/01/12 11:09:16;;;;;;;60.30;29.80;;;;;;;8.86;100.00;98937.22;67759;1277;1015995;-59
2023/01/12 11:12:19;;;;;;;52.70;26.60;;;;;;;8.98;100.00;98934.30;67805;1278;1016330;-59
2023/01/12 11:15:21;;;;;;;41.30;21.40;;;;;;;9.17;100.00;98929.48;67857;1278;1016273;-60
2023/01/12 11:18:24;;;;;;;;;;;;;;;9.30;100.00;98925.50;67849;1278;1016503;-59
2023/01/12 11:21:26;;;;;;;46.70;23.70;;;;;;;9.49;100.00;98925.85;67836;1278;1016227;-60
2023/01/12 11:24:29;;;;;;;38.40;18.40;;;;;;;9.80;100.00;98923.06;67806;1278;1018913;-59
2023/01/12 11:27:31;;;;;;;39.70;19.60;;;;;;;10.02;100.00;98923.61;67822;1278;1016467;-59
2023/01/12 11:30:34;;;;;;;36.00;16.50;;;;;;;10.23;100.00;98926.02;67851;1278;1016362;-60
2023/01/12 11:33:36;;;;;;;34.30;15.60;;;;;;;10.28;100.00;98925.95;67789;1278;1016654;-60
2023/01/12 11:36:39;;;;;;;36.60;16.90;;;;;;;10.28;100.00;98920.03;67777;1278;1016522;-60
2023/01/12 11:39:42;;;;;;;40.20;18.20;;;;;;;10.32;100.00;98916.64;67821;1277;1016705;-59
2023/01/12 11:46:04;;;;;;;38.10;17.00;;;;;;;10.07;100.00;98923.11;67815;1278;1016483;-58
2023/01/12 11:49:07;;;;;;;36.60;15.00;;;;;;;10.00;100.00;98925.48;67779;1278;1016499;-59
2023/01/12 11:52:10;;;;;;;35.20;16.20;;;;;;;9.87;100.00;98921.13;67811;1278;1016406;-58
2023/01/12 11:55:13;;;;;;;;;;;;;;;9.76;100.00;98924.36;67790;1277;1016483;-58
2023/01/12 11:58:15;;;;;;;36.60;16.20;;;;;;;9.67;100.00;98918.19;67827;1278;1016278;-59
2023/01/12 12:01:17;;;;;;;38.70;16.10;;;;;;;9.70;100.00;98910.89;67861;1278;1016349;-59
2023/01/12 12:04:20;;;;;;;38.70;17.40;;;;;;;9.68;100.00;98904.69;67813;1278;1018604;-58
2023/01/12 12:07:22;;;;;;;33.80;15.20;;;;;;;9.64;100.00;98909.45;67764;1278;1018589;-59
2023/01/12 12:10:26;;;;;;;36.90;17.20;;;;;;;9.51;100.00;98905.45;67819;1278;1017726;-59
2023/01/12 12:13:29;;;;;;;29.60;14.10;;;;;;;9.44;100.00;98903.23;67846;1278;1016283;-58
2023/01/12 12:16:32;;;;;;;32.50;15.00;;;;;;;9.30;100.00;98897.73;67853;1278;1016262;-58
2023/01/12 12:19:34;;;;;;;;;;;;;;;9.20;100.00;98897.91;67840;1278;1016456;-59
2023/01/12 12:22:37;;;;;;;40.00;18.40;;;;;;;9.21;100.00;98889.99;67789;1278;1016493;-58
2023/01/12 12:25:39;;;;;;;32.70;15.80;;;;;;;9.30;100.00;98886.37;67807;1278;1019765;-58
2023/01/12 12:28:42;;;;;;;34.60;16.60;;;;;;;9.39;100.00;98880.48;67834;1278;1016470;-59
2023/01/12 12:31:44;;;;;;;31.60;15.00;;;;;;;9.51;100.00;98879.29;67815;1278;1016391;-58
2023/01/12 12:34:48;;;;;;;32.30;15.70;;;;;;;9.74;100.00;98872.10;67790;1278;1018544;-58
2023/01/12 12:37:52;;;;;;;29.30;12.50;;;;;;;9.94;100.00;98864.82;67839;1278;1016539;-58
2023/01/12 12:47:36;;;;;;;32.60;14.50;;;;;;;10.31;100.00;98850.45;67799;1278;1016448;-59
2023/01/12 12:50:39;;;;;;;33.90;14.80;;;;;;;10.40;100.00;98852.21;67779;1278;1018654;-59
2023/01/12 12:53:42;;;;;;;32.10;13.50;;;;;;;10.48;100.00;98855.91;67844;1278;1016163;-59
2023/01/12 12:56:45;;;;;;;28.40;12.10;;;;;;;10.46;100.00;98857.47;67830;1254;1016267;-59
2023/01/12 12:59:48;;;;;;;28.20;11.50;;;;;;;10.49;100.00;98851.65;67867;1278;1016440;-59
2023/01/12 13:02:50;;;;;;;28.40;12.30;;;;;;;10.54;100.00;98843.48;67804;1277;1016420;-59
2023/01/12 13:05:53;;;;;;;29.70;12.90;;;;;;;10.54;100.00;98840.69;67786;1278;1016479;-59
2023/01/12 13:08:56;;;;;;;30.70;12.60;;;;;;;10.67;100.00;98834.52;67834;1278;1016362;-59
2023/01/12 13:11:59;;;;;;;32.20;12.00;;;;;;;10.69;100.00;98828.64;67856;1278;1016450;-59
2023/01/12 13:15:01;;;;;;;31.00;13.20;;;;;;;10.73;100.00;98828.90;67826;1278;1016491;-59
2023/01/12 13:18:04;;;;;;;29.20;12.50;;;;;;;10.69;100.00;98828.80;67861;1277;1016032;-59
2023/01/12 13:21:06;;;;;;;;;;;;;;;10.71;100.00;98828.50;67813;1278;1016471;-59
2023/01/12 13:24:09;;;;;;;33.60;14.80;;;;;;;10.65;100.00;98830.75;67812;1278;1016440;-59
2023/01/12 13:27:11;;;;;;;30.00;11.40;;;;;;;10.61;100.00;98824.39;67812;1278;1016325;-59
2023/01/12 13:30:13;;;;;;;28.80;11.70;;;;;;;10.66;100.00;98831.23;67863;1278;1016406;-59
2023/01/12 13:33:16;;;;;;;30.60;11.00;;;;;;;10.63;100.00;98834.23;67859;1278;1018606;-59
2023/01/12 13:36:19;;;;;;;28.90;10.70;;;;;;;10.64;100.00;98835.36;67823;1278;1016477;-59
2023/01/12 13:39:22;;;;;;;33.10;11.90;;;;;;;10.57;100.00;98834.06;67906;1278;1016443;-59
2023/01/12 13:45:45;;;;;;;32.60;10.40;;;;;;;10.51;100.00;98844.38;67799;1278;1017438;-59
2023/01/12 13:48:47;;;;;;;35.50;11.60;;;;;;;10.48;100.00;98840.38;67807;1277;1016854;-59
2023/01/12 13:51:50;;;;;;;30.00;10.80;;;;;;;10.41;100.00;98837.80;67829;1277;1016474;-59
2023/01/12 13:54:52;;;;;;;29.00;9.80;;;;;;;10.31;100.00;98836.46;67866;1278;1016150;-59
2023/01/12 13:57:55;;;;;;;28.10;9.60;;;;;;;10.21;100.00;98832.33;67839;1278;1016456;-59
2023/01/12 14:00:58;;;;;;;30.90;9.80;;;;;;;10.14;100.00;98826.09;67809;1278;1017321;-59
2023/01/12 14:04:00;;;;;;;31.10;10.20;;;;;;;10.04;100.00;98831.38;67813;1278;1016437;-59
2023/01/12 14:07:03;;;;;;;32.50;11.20;;;;;;;10.03;100.00;98826.17;67812;1277;1016405;-59
2023/01/12 14:10:06;;;;;;;32.50;12.20;;;;;;;9.97;100.00;98819.61;67807;1277;1018794;-59
2023/01/12 14:13:08;;;;;;;35.70;11.40;;;;;;;9.94;100.00;98817.14;67809;1278;1016219;-59
2023/01/12 14:19:31;;;;;;;28.60;8.50;;;;;;;9.80;100.00;98812.35;67843;1278;1016449;-59
2023/01/12 14:22:33;;;;;;;26.40;7.90;;;;;;;9.73;100.00;98803.69;67866;1278;1016292;-59
2023/01/12 14:25:35;;;;;;;28.30;7.60;;;;;;;9.70;100.00;98797.94;67826;1278;1016554;-59
2023/01/12 14:28:38;;;;;;;25.90;8.20;;;;;;;9.50;100.00;98795.42;67836;1278;1016420;-59